createdAt,value
2018-11-26T00:00:36.107Z,4.39
2018-11-26T00:05:54.768Z,4.38
2018-11-26T00:11:24.559Z,4.35
2018-11-26T00:16:43.294Z,4.33
2018-11-26T00:22:01.882Z,4.38
2018-11-26T00:27:20.480Z,4.38
2018-11-26T00:32:39.039Z,4.36
2018-11-26T00:37:57.684Z,4.32
2018-11-26T00:43:16.228Z,4.29
2018-11-26T00:48:34.749Z,4.31
2018-11-26T00:53:53.300Z,4.31
2018-11-26T00:59:11.961Z,4.30
2018-11-26T01:04:30.603Z,4.32
2018-11-26T01:09:49.207Z,4.35
2018-11-26T01:15:08.095Z,4.32
2018-11-26T01:20:26.749Z,4.28
2018-11-26T01:25:45.459Z,4.29
2018-11-26T01:31:03.948Z,4.34
2018-11-26T01:36:22.568Z,4.29
2018-11-26T01:41:41.123Z,4.41
2018-11-26T01:46:59.659Z,4.31
2018-11-26T01:52:18.190Z,4.36
2018-11-26T01:57:36.812Z,4.31
2018-11-26T02:02:55.537Z,4.27
2018-11-26T02:08:14.172Z,4.26
2018-11-26T02:13:32.727Z,4.31
2018-11-26T02:18:51.473Z,4.32
2018-11-26T02:24:09.983Z,4.39
2018-11-26T02:29:28.674Z,4.38
2018-11-26T02:34:47.297Z,4.36
2018-11-26T02:40:08.110Z,4.41
2018-11-26T02:45:27.064Z,4.35
2018-11-26T02:50:45.580Z,4.42
2018-11-26T02:56:04.111Z,4.39
2018-11-26T03:01:22.717Z,4.33
2018-11-26T03:06:41.240Z,4.36
2018-11-26T03:11:59.925Z,4.42
2018-11-26T03:17:18.472Z,4.40
2018-11-26T03:22:37.141Z,4.40
2018-11-26T03:27:55.796Z,4.35
2018-11-26T03:33:14.359Z,4.33
2018-11-26T03:38:44.479Z,4.35
2018-11-26T03:44:03.011Z,4.34
2018-11-26T03:49:21.587Z,4.34
2018-11-26T03:54:40.143Z,4.36
2018-11-26T03:59:58.728Z,4.33
2018-11-26T04:05:17.929Z,4.40
2018-11-26T04:10:36.463Z,4.32
2018-11-26T04:15:55.031Z,4.36
2018-11-26T04:21:13.541Z,4.34
2018-11-26T04:26:32.064Z,4.38
2018-11-26T04:31:50.640Z,4.28
2018-11-26T04:37:09.149Z,4.28
2018-11-26T04:42:27.666Z,4.28
2018-11-26T04:47:46.209Z,4.28
2018-11-26T04:53:04.872Z,4.13
2018-11-26T04:58:23.448Z,4.23
2018-11-26T05:03:42.006Z,4.23
2018-11-26T05:09:00.715Z,4.19
2018-11-26T05:14:19.252Z,4.19
2018-11-26T05:19:37.831Z,4.25
2018-11-26T05:24:56.365Z,4.25
2018-11-26T05:30:15.052Z,4.15
2018-11-26T05:35:33.827Z,4.16
2018-11-26T05:40:52.429Z,4.23
2018-11-26T05:46:11.138Z,4.15
2018-11-26T05:51:29.715Z,4.17
2018-11-26T05:56:48.225Z,4.25
2018-11-26T06:02:06.868Z,4.67
2018-11-26T06:07:25.468Z,4.37
2018-11-26T06:12:44.042Z,4.27
2018-11-26T06:18:02.579Z,4.20
2018-11-26T06:23:21.290Z,4.13
2018-11-26T06:28:39.943Z,4.12
2018-11-26T06:33:58.478Z,4.07
2018-11-26T06:39:17.043Z,4.15
2018-11-26T06:44:35.559Z,4.11
2018-11-26T06:49:54.228Z,4.05
2018-11-26T06:55:15.136Z,4.01
2018-11-26T07:00:33.739Z,4.01
2018-11-26T07:05:52.384Z,3.99
2018-11-26T07:11:10.943Z,4.07
2018-11-26T07:16:29.456Z,4.01
2018-11-26T07:21:47.968Z,4.07
2018-11-26T07:27:06.873Z,4.13
2018-11-26T07:32:25.389Z,4.16
2018-11-26T07:37:44.024Z,4.16
2018-11-26T07:43:09.947Z,4.21
2018-11-26T07:48:28.629Z,4.22
2018-11-26T07:53:47.220Z,4.16
2018-11-26T07:59:05.764Z,4.19
2018-11-26T08:04:24.307Z,4.14
2018-11-26T08:09:42.823Z,4.34
2018-11-26T08:15:01.393Z,4.26
2018-11-26T08:20:19.964Z,4.30
2018-11-26T08:25:38.700Z,4.35
2018-11-26T08:30:57.299Z,4.38
2018-11-26T08:36:16.087Z,4.37
2018-11-26T08:41:36.713Z,4.42
2018-11-26T08:47:00.929Z,4.48
2018-11-26T08:52:20.413Z,4.59
2018-11-26T08:57:39.024Z,4.67
2018-11-26T09:03:04.007Z,4.65
2018-11-26T09:08:22.611Z,4.72
2018-11-26T09:13:41.300Z,4.77
2018-11-26T09:18:59.867Z,4.88
2018-11-26T09:24:18.376Z,4.90
2018-11-26T09:29:36.931Z,4.97
2018-11-26T09:34:55.483Z,4.92
2018-11-26T09:40:15.267Z,4.98
2018-11-26T09:45:40.089Z,5.02
2018-11-26T09:50:52.358Z,4.99
2018-11-26T09:56:10.940Z,5.03
2018-11-26T10:01:29.556Z,4.96
2018-11-26T10:06:48.075Z,5.01
2018-11-26T10:12:06.615Z,5.00
2018-11-26T10:17:25.208Z,5.08
2018-11-26T10:22:44.274Z,5.06
2018-11-26T10:28:02.945Z,5.11
2018-11-26T10:33:21.527Z,5.07
2018-11-26T10:38:40.116Z,5.19
2018-11-26T10:43:58.690Z,5.20
2018-11-26T10:49:17.181Z,5.17
2018-11-26T10:54:35.812Z,5.26
2018-11-26T10:59:54.427Z,5.28
2018-11-26T11:05:12.991Z,5.37
2018-11-26T11:10:32.873Z,5.37
2018-11-26T11:15:51.457Z,5.35
2018-11-26T11:21:09.989Z,5.38
2018-11-26T11:26:28.552Z,5.37
2018-11-26T11:31:47.145Z,5.24
2018-11-26T11:37:05.823Z,5.30
2018-11-26T11:42:24.364Z,5.40
2018-11-26T11:47:42.967Z,5.35
2018-11-26T11:53:01.481Z,5.38
2018-11-26T11:58:20.014Z,5.39
2018-11-26T12:03:38.594Z,5.34
2018-11-26T12:08:57.409Z,5.39
2018-11-26T12:14:17.250Z,5.48
2018-11-26T12:19:35.921Z,5.45
2018-11-26T12:24:54.524Z,5.51
2018-11-26T12:30:15.557Z,5.56
2018-11-26T12:35:34.384Z,5.58
2018-11-26T12:40:52.872Z,5.76
2018-11-26T12:46:11.475Z,5.82
2018-11-26T12:51:29.984Z,5.83
2018-11-26T12:56:48.581Z,5.91
2018-11-26T13:02:07.546Z,5.90
2018-11-26T13:07:26.113Z,5.72
2018-11-26T13:12:45.078Z,5.70
2018-11-26T13:18:03.680Z,5.64
2018-11-26T13:23:22.235Z,5.59
2018-11-26T13:28:40.784Z,5.53
2018-11-26T13:33:59.353Z,5.51
2018-11-26T13:39:18.026Z,5.55
2018-11-26T13:44:36.614Z,5.48
2018-11-26T13:49:55.168Z,5.42
2018-11-26T13:55:13.736Z,5.47
2018-11-26T14:00:32.423Z,5.49
2018-11-26T14:05:51.142Z,5.46
2018-11-26T14:11:09.786Z,5.44
2018-11-26T14:16:28.378Z,5.47
2018-11-26T14:21:47.195Z,5.43
2018-11-26T14:27:06.250Z,5.30
2018-11-26T14:32:24.815Z,5.23
2018-11-26T14:37:43.507Z,5.16
2018-11-26T14:43:02.047Z,5.11
2018-11-26T14:48:20.560Z,5.02
2018-11-26T14:53:39.115Z,5.00
2018-11-26T14:58:57.879Z,5.01
2018-11-26T15:04:16.766Z,4.90
2018-11-26T15:09:35.375Z,4.88
2018-11-26T15:14:53.958Z,4.89
2018-11-26T15:20:14.099Z,5.03
2018-11-26T15:25:34.321Z,4.99
2018-11-26T15:30:53.226Z,4.93
2018-11-26T15:36:11.822Z,4.65
2018-11-26T15:41:30.373Z,4.61
2018-11-26T15:46:48.965Z,4.63
2018-11-26T15:52:07.537Z,4.74
2018-11-26T15:57:26.117Z,4.76
2018-11-26T16:02:44.797Z,4.86
2018-11-26T16:08:05.426Z,4.61
2018-11-26T16:13:24.068Z,4.50
2018-11-26T16:18:42.614Z,4.44
2018-11-26T16:24:01.195Z,4.43
2018-11-26T16:29:19.769Z,4.41
2018-11-26T16:34:38.362Z,4.38
2018-11-26T16:39:56.936Z,4.22
2018-11-26T16:45:17.960Z,4.41
2018-11-26T16:50:37.384Z,4.45
2018-11-26T16:55:56.013Z,4.36
2018-11-26T17:01:14.632Z,4.34
2018-11-26T17:06:33.190Z,4.21
2018-11-26T17:11:51.751Z,4.16
2018-11-26T17:17:10.334Z,4.11
2018-11-26T17:22:28.923Z,4.12
2018-11-26T17:27:47.726Z,4.10
2018-11-26T17:33:08.166Z,4.06
2018-11-26T17:38:26.723Z,3.95
2018-11-26T17:43:45.219Z,3.96
2018-11-26T17:49:03.774Z,3.93
2018-11-26T17:54:22.406Z,3.73
2018-11-26T17:59:41.440Z,3.74
2018-11-26T18:04:59.957Z,3.73
2018-11-26T18:10:19.648Z,3.63
2018-11-26T18:15:38.191Z,3.63
2018-11-26T18:20:56.736Z,3.61
2018-11-26T18:26:15.663Z,3.63
2018-11-26T18:31:35.068Z,3.63
2018-11-26T18:36:53.686Z,3.66
2018-11-26T18:42:12.335Z,3.74
2018-11-26T18:47:31.227Z,3.62
2018-11-26T18:52:50.522Z,3.58
2018-11-26T18:58:09.153Z,3.59
2018-11-26T19:03:27.714Z,3.60
2018-11-26T19:08:46.336Z,3.60
2018-11-26T19:14:12.014Z,3.65
2018-11-26T19:19:30.629Z,3.64
2018-11-26T19:24:49.214Z,3.54
2018-11-26T19:30:10.593Z,3.46
2018-11-26T19:35:29.081Z,3.26
2018-11-26T19:40:47.725Z,3.30
2018-11-26T19:46:06.829Z,3.24
2018-11-26T19:51:25.475Z,3.24
2018-11-26T19:56:44.058Z,3.21
2018-11-26T20:02:03.037Z,3.20
2018-11-26T20:07:21.784Z,3.15
2018-11-26T20:12:40.511Z,3.09
2018-11-26T20:17:59.257Z,3.05
2018-11-26T20:23:17.899Z,2.96
2018-11-26T20:28:36.446Z,2.97
2018-11-26T20:33:54.961Z,2.98
2018-11-26T20:39:13.513Z,2.99
2018-11-26T20:44:32.115Z,2.92
2018-11-26T20:49:50.731Z,2.92
2018-11-26T20:55:11.835Z,2.93
2018-11-26T21:00:30.415Z,2.85
2018-11-26T21:05:48.945Z,2.81
2018-11-26T21:11:07.633Z,2.84
2018-11-26T21:16:26.194Z,2.76
2018-11-26T21:21:44.846Z,2.73
2018-11-26T21:27:03.472Z,2.81
2018-11-26T21:32:22.091Z,2.82
2018-11-26T21:37:41.708Z,2.75
2018-11-26T21:43:00.688Z,2.65
2018-11-26T21:48:18.928Z,2.76
2018-11-26T21:53:37.723Z,2.70
2018-11-26T21:58:56.288Z,2.65
2018-11-26T22:04:14.934Z,2.60
2018-11-26T22:09:33.490Z,2.57
2018-11-26T22:14:51.987Z,2.63
2018-11-26T22:20:31.930Z,2.59
2018-11-26T22:25:50.487Z,2.62
2018-11-26T22:31:09.082Z,2.64
2018-11-26T22:36:27.574Z,2.61
2018-11-26T22:41:46.116Z,2.75
2018-11-26T22:47:04.692Z,2.76
2018-11-26T22:52:23.332Z,2.81
2018-11-26T22:57:42.293Z,2.87
2018-11-26T23:03:01.325Z,2.80
2018-11-26T23:08:19.850Z,2.80
2018-11-26T23:13:38.616Z,2.51
2018-11-26T23:18:57.129Z,2.41
2018-11-26T23:24:15.687Z,2.68
2018-11-26T23:29:34.520Z,2.67
2018-11-26T23:34:53.075Z,2.66
2018-11-26T23:40:12.681Z,2.68
2018-11-26T23:45:31.204Z,2.58
2018-11-26T23:50:49.806Z,2.52
2018-11-26T23:56:08.532Z,2.62
